Terminal Aerodrome Forecast
Issued by NWS

Home | Current Version | Previous Version | Graphics & Text | Print | Product List | Glossary On
Versions: 1 2 3 4 5 6 7 8 9 10 11 12 13 14 15 16 17 18 19 20 21 22 23 24
000
FTUS43 KGRB 121606 AAB
TAFRHI
TAF AMD
KRHI 121606Z 1216/1312 32007G15KT P6SM SCT018 BKN030
      TEMPO 1216/1220 -SHSN BKN018
     FM122000 32006KT P6SM SCT020 SCT035
     FM122200 31004KT P6SM SCT040 BKN250
     FM130800 13006KT 1SM -SN BR OVC005=

USA.gov is the U.S. government's official web portal to all federal, state and local government web resources and services.